Flight Track Log - Related Links

Times and Time Zones

All times are in EDT time to prevent confusion due to time zone crossing. See the LBQ792 flight status page for this flight to view local times or setup timezone preferences in your user account.

Time Position Orientation Groundspeed Altitude Reporting Facility
EDT Latitude Longitude Course Direction KTS MPH feet Rate Location/Type
Thu 12:36:09 AM 40.3133 -79.9161 129° Southeast 165 190 4,300  Level Cleveland Center
Thu 12:37:09 AM 40.2797 -79.8619 129° Southeast 175 201 5,100 1,150 Climbing Cleveland Center
Thu 12:38:09 AM 40.2481 -79.8025 125° Southeast 186 214 6,600 1,450 Climbing Cleveland Center
Thu 12:39:09 AM 40.2164 -79.7431 125° Southeast 192 221 8,000 1,450 Climbing Cleveland Center
Thu 12:40:00 AM 39.9774 -79.8879 173° South  Level FlightAware Approximate
Thu 12:40:09 AM 40.1867 -79.6836 123° Southeast 192 221 9,500  Level Cleveland Center
Thu 12:41:09 AM 40.1550 -79.6269 126° Southeast 192 221 10,900 1,300 Climbing Cleveland Center
Thu 12:42:09 AM 40.1231 -79.5678 125° Southeast 192 221 12,100 1,250 Climbing Cleveland Center
Thu 12:43:09 AM 40.0892 -79.5058 126° Southeast 197 227 13,400 1,400 Climbing Cleveland Center
Thu 12:44:09 AM 40.0553 -79.4411 124° Southeast 197 227 14,900 850 Climbing Cleveland Center
Thu 12:45:09 AM 40.0192 -79.3767 126° Southeast 207 238 15,100 100 Climbing Cleveland Center
Thu 12:46:09 AM 39.9786 -79.2989 124° Southeast 235 270 15,100  Level Cleveland Center
Thu 12:47:09 AM 39.9361 -79.2211 125° Southeast 251 289 15,100 -50 Level Cleveland Center
Thu 12:48:09 AM 39.8933 -79.1408 125° Southeast 262 302 15,000  Descending Cleveland Center
Thu 12:49:52 AM 39.8233 -79.0172 126° Southeast 263 303 15,100 -36 Climbing Washington Center
Thu 12:50:54 AM 39.7717 -78.9256 126° Southeast 271 312 14,900 -350 Descending Washington Center
Thu 12:51:52 AM 39.7261 -78.8425 125° Southeast 278 320 14,400 -712 Descending Washington Center
Thu 12:52:52 AM 39.6806 -78.7569 125° Southeast 283 326 13,500 -800 Descending Washington Center
Thu 12:53:52 AM 39.6367 -78.6769 125° Southeast 283 326 12,800 -683 Descending Washington Center
Thu 12:54:55 AM 39.5889 -78.5942 127° Southeast 283 326 12,100 -800 Descending Washington Center
Thu 12:55:52 AM 39.5428 -78.5114 126° Southeast 283 326 11,200 -872 Descending Washington Center
Thu 12:56:52 AM 39.4989 -78.4317 125° Southeast 278 320 10,400 -650 Descending Washington Center
Thu 12:57:52 AM 39.4531 -78.3492 126° Southeast 278 320 9,900 -248 Descending Washington Center
Thu 12:58:53 AM 39.4108 -78.2778 127° Southeast 273 314 9,900 -443 Level Washington Center
Thu 12:59:54 AM 39.3667 -78.1983 126° Southeast 273 314 9,000 -504 Descending Washington Center
Thu 01:00:52 AM 39.3225 -78.1242 128° Southeast 268 308 8,900 -407 Descending Washington Center
Thu 01:01:52 AM 39.2675 -78.0633 139° Southeast 262 302 8,200 -689 Descending Washington Center
Thu 01:02:54 AM 39.2103 -77.9972 138° Southeast 268 308 7,500 -750 Descending Washington Center
Thu 01:03:52 AM 39.1553 -77.9311 137° Southeast 268 308 6,700 -712 Descending Washington Center
Thu 01:04:52 AM 39.1003 -77.8678 138° Southeast 268 308 6,100 -347 Descending Washington Center
Thu 01:05:53 AM 39.0575 -77.8131 135° Southeast 260 299 6,000 -393 Descending Washington Center
Thu 01:06:54 AM 38.9961 -77.7469 140° Southeast 255 293 5,300 -787 Descending Washington Center
Thu 01:07:55 AM 38.9472 -77.6922 139° Southeast 260 299 4,400 -355 Descending Washington Center
Thu 01:10:00 AM 38.9474 -77.5997 131° Southeast  Level Estimated
Thu 01:12:15 AM 38.7500 -77.4667 90° East 216 249 3,400  Level Potomac TRACON
Thu 01:13:15 AM 38.8000 -77.4333 27° Northeast 216 249 2,500 -843 Descending Potomac TRACON
Thu 01:14:16 AM 38.8500 -77.4333 360° North 192 221 1,700 -793 Descending Potomac TRACON
Thu 01:15:16 AM 38.9000 -77.4333 360° North 159 183 900 -800 Descending Potomac TRACON
Thu 01:17:00 AM 38.9474 -77.4599 90° East  Level Estimated
Thu 01:17:00 AM 38.9333 -77.4500 339° North  Level FlightAware Approximate
Thu 01:24:00 AM 38.9474 -77.4599 339° North  Level Estimated
Thu 01:25:00 AM 38.9474 -77.4599 339° North  Level Estimated
Thu 01:26:00 AM 38.9474 -77.4599 339° North  Level Estimated

Login

Don't have an account? Register now (free) for customized features, flight alerts, and more!